Alamo, Texas
Current Conditions -  °F | °C
As of 7:53 AM on Thursday 23 Oct 2014 (Local Time) from KMFE Reporting Station
Clear Clear  
Wind Chill: 70°   Ceiling: Unl
Heat Index: 70°   Visibility: 10mi
Dew Point: 66°   Wind: 8mph
Humidity: 87%   Direction: 10°N
Pressure: 30.06"   Gusts: NA
Location:  26.18°N, 98.12°W
Report Text: KMFE 231253Z 01007KT 10SM CLR 21/19 A3006 RMK AO2 SLP176 T02110189
Loading
Personal Weather Stations






























Interactive Weather Map
Tropical Storm Tracking
New forecast layout! Learn more

10-Day Weather Forecast

Advertisements
Track Severe Weather on mobile